sensor_id;sensor_type;location;lat;lon;timestamp;pressure;altitude;pressure_sealevel;temperature;humidity
12077;BME280;12420;42.676;23.262;2023-03-21T00:02:17;94350.94;;;10.45;74.78
12077;BME280;12420;42.676;23.262;2023-03-21T00:04:44;94355.03;;;10.78;76.95
12077;BME280;12420;42.676;23.262;2023-03-21T00:07:11;94452.25;;;11.49;73.84
12077;BME280;12420;42.676;23.262;2023-03-21T00:09:38;94430.75;;;11.42;72.71
12077;BME280;12420;42.676;23.262;2023-03-21T00:12:06;94318.88;;;10.76;72.39
12077;BME280;12420;42.676;23.262;2023-03-21T00:14:34;94428.78;;;11.63;72.52
12077;BME280;12420;42.676;23.262;2023-03-21T00:17:02;94315.19;;;10.47;71.72
12077;BME280;12420;42.676;23.262;2023-03-21T00:19:29;94416.19;;;11.62;71.27
12077;BME280;12420;42.676;23.262;2023-03-21T00:21:57;94423.63;;;11.67;72.46
12077;BME280;12420;42.676;23.262;2023-03-21T00:24:24;94424.38;;;11.68;72.92
12077;BME280;12420;42.676;23.262;2023-03-21T00:26:51;94318.84;;;10.90;73.72
12077;BME280;12420;42.676;23.262;2023-03-21T00:29:19;94466.94;;;11.70;73.54
12077;BME280;12420;42.676;23.262;2023-03-21T00:31:46;94423.22;;;11.63;73.79
12077;BME280;12420;42.676;23.262;2023-03-21T00:34:13;94421.56;;;11.47;72.22
12077;BME280;12420;42.676;23.262;2023-03-21T00:36:40;94399.56;;;11.28;72.40
12077;BME280;12420;42.676;23.262;2023-03-21T00:39:07;94365.88;;;11.03;71.98
12077;BME280;12420;42.676;23.262;2023-03-21T00:41:34;94425.38;;;11.57;72.34
12077;BME280;12420;42.676;23.262;2023-03-21T00:44:01;94439.13;;;11.63;73.88
12077;BME280;12420;42.676;23.262;2023-03-21T00:46:29;94412.34;;;11.65;74.18
12077;BME280;12420;42.676;23.262;2023-03-21T00:48:56;94413.22;;;11.60;75.26
12077;BME280;12420;42.676;23.262;2023-03-21T00:51:23;94384.19;;;11.40;75.57
12077;BME280;12420;42.676;23.262;2023-03-21T00:53:52;94350.91;;;10.72;75.00
12077;BME280;12420;42.676;23.262;2023-03-21T00:56:19;94410.00;;;11.35;75.35
12077;BME280;12420;42.676;23.262;2023-03-21T00:58:46;94460.88;;;10.98;77.30
12077;BME280;12420;42.676;23.262;2023-03-21T01:01:13;94410.41;;;10.92;77.99
12077;BME280;12420;42.676;23.262;2023-03-21T01:03:41;94411.25;;;11.00;77.84
12077;BME280;12420;42.676;23.262;2023-03-21T01:06:12;94402.94;;;11.00;77.87
12077;BME280;12420;42.676;23.262;2023-03-21T01:08:44;94368.06;;;10.70;78.19
12077;BME280;12420;42.676;23.262;2023-03-21T01:11:14;94337.34;;;10.34;78.28
12077;BME280;12420;42.676;23.262;2023-03-21T01:13:41;94372.63;;;10.68;78.89
12077;BME280;12420;42.676;23.262;2023-03-21T01:16:08;94402.31;;;10.94;78.45
12077;BME280;12420;42.676;23.262;2023-03-21T01:18:37;94386.16;;;10.84;78.79
12077;BME280;12420;42.676;23.262;2023-03-21T01:21:08;94404.97;;;10.86;77.92
12077;BME280;12420;42.676;23.262;2023-03-21T01:23:36;94234.25;;;9.67;78.31
12077;BME280;12420;42.676;23.262;2023-03-21T01:26:03;94417.47;;;10.79;78.45
12077;BME280;12420;42.676;23.262;2023-03-21T01:28:31;94341.44;;;10.27;78.11
12077;BME280;12420;42.676;23.262;2023-03-21T01:31:00;94404.47;;;10.74;77.86
12077;BME280;12420;42.676;23.262;2023-03-21T01:33:27;94383.50;;;10.65;78.77
12077;BME280;12420;42.676;23.262;2023-03-21T01:35:55;94351.88;;;10.48;79.72
12077;BME280;12420;42.676;23.262;2023-03-21T01:38:24;94391.69;;;10.71;79.79
12077;BME280;12420;42.676;23.262;2023-03-21T01:40:51;94401.06;;;10.81;80.26
12077;BME280;12420;42.676;23.262;2023-03-21T01:43:25;94413.84;;;10.84;80.21
12077;BME280;12420;42.676;23.262;2023-03-21T01:46:19;94405.31;;;10.82;79.96
12077;BME280;12420;42.676;23.262;2023-03-21T01:48:50;94374.22;;;10.63;80.37
12077;BME280;12420;42.676;23.262;2023-03-21T01:51:21;94396.06;;;10.67;80.32
12077;BME280;12420;42.676;23.262;2023-03-21T01:53:52;94436.19;;;10.47;80.55
12077;BME280;12420;42.676;23.262;2023-03-21T01:56:22;94381.38;;;10.45;80.30
12077;BME280;12420;42.676;23.262;2023-03-21T01:58:53;94374.25;;;10.36;80.17
12077;BME280;12420;42.676;23.262;2023-03-21T02:01:21;94277.00;;;9.92;80.70
12077;BME280;12420;42.676;23.262;2023-03-21T02:03:49;94349.00;;;10.27;81.01
12077;BME280;12420;42.676;23.262;2023-03-21T02:06:23;94265.28;;;9.60;81.40
12077;BME280;12420;42.676;23.262;2023-03-21T02:08:57;94391.69;;;10.45;80.87
12077;BME280;12420;42.676;23.262;2023-03-21T02:11:26;94387.13;;;10.47;80.77
12077;BME280;12420;42.676;23.262;2023-03-21T02:13:54;94398.72;;;10.46;81.20
12077;BME280;12420;42.676;23.262;2023-03-21T02:16:28;94348.34;;;10.07;80.81
12077;BME280;12420;42.676;23.262;2023-03-21T02:19:07;94385.69;;;10.27;81.77
12077;BME280;12420;42.676;23.262;2023-03-21T02:22:13;94374.38;;;10.31;80.73
12077;BME280;12420;42.676;23.262;2023-03-21T02:27:50;94378.88;;;10.15;80.55
12077;BME280;12420;42.676;23.262;2023-03-21T02:30:44;94369.31;;;10.16;79.75
12077;BME280;12420;42.676;23.262;2023-03-21T02:33:50;94344.31;;;9.95;79.98
12077;BME280;12420;42.676;23.262;2023-03-21T02:36:33;94381.13;;;10.16;80.42
12077;BME280;12420;42.676;23.262;2023-03-21T02:39:10;94368.88;;;9.98;81.07
12077;BME280;12420;42.676;23.262;2023-03-21T02:41:46;94364.75;;;9.60;81.48
12077;BME280;12420;42.676;23.262;2023-03-21T02:44:20;94357.78;;;9.85;81.92
12077;BME280;12420;42.676;23.262;2023-03-21T02:46:54;94422.72;;;10.11;82.15
12077;BME280;12420;42.676;23.262;2023-03-21T02:49:28;94356.22;;;10.03;82.24
12077;BME280;12420;42.676;23.262;2023-03-21T02:51:56;94372.50;;;10.07;82.27
12077;BME280;12420;42.676;23.262;2023-03-21T02:54:26;94272.91;;;9.40;82.13
12077;BME280;12420;42.676;23.262;2023-03-21T02:56:55;94371.53;;;10.17;82.48
12077;BME280;12420;42.676;23.262;2023-03-21T02:59:26;94363.34;;;10.12;82.61
12077;BME280;12420;42.676;23.262;2023-03-21T03:01:55;94372.81;;;10.16;83.16
12077;BME280;12420;42.676;23.262;2023-03-21T03:04:25;94350.13;;;9.91;83.17
12077;BME280;12420;42.676;23.262;2023-03-21T03:07:04;94379.00;;;10.22;83.49
12077;BME280;12420;42.676;23.262;2023-03-21T03:09:46;94384.09;;;10.18;83.60
12077;BME280;12420;42.676;23.262;2023-03-21T03:12:25;94354.84;;;10.10;84.13
12077;BME280;12420;42.676;23.262;2023-03-21T03:15:05;94372.94;;;10.11;84.74
12077;BME280;12420;42.676;23.262;2023-03-21T03:17:41;94285.13;;;9.45;84.61
12077;BME280;12420;42.676;23.262;2023-03-21T03:20:27;94364.19;;;9.93;84.91
12077;BME280;12420;42.676;23.262;2023-03-21T03:23:03;94380.88;;;10.01;85.27
12077;BME280;12420;42.676;23.262;2023-03-21T03:25:37;94375.34;;;10.01;84.35
12077;BME280;12420;42.676;23.262;2023-03-21T03:28:09;94376.94;;;9.96;84.18
12077;BME280;12420;42.676;23.262;2023-03-21T03:30:39;94375.69;;;9.97;84.24
12077;BME280;12420;42.676;23.262;2023-03-21T03:33:09;94388.97;;;9.99;83.98
12077;BME280;12420;42.676;23.262;2023-03-21T03:35:39;94344.81;;;9.67;84.34
12077;BME280;12420;42.676;23.262;2023-03-21T03:38:07;94401.56;;;9.81;83.96
12077;BME280;12420;42.676;23.262;2023-03-21T03:40:39;94387.53;;;9.79;83.95
12077;BME280;12420;42.676;23.262;2023-03-21T03:43:11;94386.53;;;9.63;84.77
12077;BME280;12420;42.676;23.262;2023-03-21T03:45:46;94387.00;;;9.48;84.88
12077;BME280;12420;42.676;23.262;2023-03-21T03:48:18;94376.16;;;9.37;85.12
12077;BME280;12420;42.676;23.262;2023-03-21T03:50:52;94365.94;;;9.32;84.26
12077;BME280;12420;42.676;23.262;2023-03-21T03:53:22;94361.91;;;9.14;83.60
12077;BME280;12420;42.676;23.262;2023-03-21T03:55:53;94368.41;;;8.98;82.84
12077;BME280;12420;42.676;23.262;2023-03-21T03:58:22;94351.84;;;9.17;82.51
12077;BME280;12420;42.676;23.262;2023-03-21T04:00:49;94374.34;;;9.21;82.84
12077;BME280;12420;42.676;23.262;2023-03-21T04:03:18;94344.00;;;9.21;83.30
12077;BME280;12420;42.676;23.262;2023-03-21T04:05:45;94367.03;;;9.42;82.97
12077;BME280;12420;42.676;23.262;2023-03-21T04:08:13;94354.88;;;9.32;83.45
12077;BME280;12420;42.676;23.262;2023-03-21T04:10:40;94330.69;;;8.87;83.56
12077;BME280;12420;42.676;23.262;2023-03-21T04:13:09;94375.13;;;9.02;83.73
12077;BME280;12420;42.676;23.262;2023-03-21T04:15:36;94270.00;;;8.68;83.85
12077;BME280;12420;42.676;23.262;2023-03-21T04:18:05;94312.75;;;9.12;83.96
12077;BME280;12420;42.676;23.262;2023-03-21T04:20:32;94265.06;;;8.42;84.31
12077;BME280;12420;42.676;23.262;2023-03-21T04:22:58;94370.66;;;9.50;84.92
12077;BME280;12420;42.676;23.262;2023-03-21T04:25:25;94361.09;;;9.19;85.15
12077;BME280;12420;42.676;23.262;2023-03-21T04:27:53;94279.13;;;8.95;85.55
12077;BME280;12420;42.676;23.262;2023-03-21T04:30:22;94374.03;;;9.43;86.10
12077;BME280;12420;42.676;23.262;2023-03-21T04:32:50;94313.69;;;8.83;86.51
12077;BME280;12420;42.676;23.262;2023-03-21T04:35:21;94367.16;;;9.50;86.29
12077;BME280;12420;42.676;23.262;2023-03-21T04:37:48;94389.50;;;9.33;86.96
12077;BME280;12420;42.676;23.262;2023-03-21T04:40:15;94300.84;;;8.66;87.44
12077;BME280;12420;42.676;23.262;2023-03-21T04:42:43;94363.81;;;9.06;87.79
12077;BME280;12420;42.676;23.262;2023-03-21T04:45:10;94378.19;;;9.18;88.49
12077;BME280;12420;42.676;23.262;2023-03-21T04:47:38;94229.13;;;8.29;88.12
12077;BME280;12420;42.676;23.262;2023-03-21T04:50:06;94285.34;;;8.63;88.85
12077;BME280;12420;42.676;23.262;2023-03-21T04:52:35;94329.25;;;8.61;87.53
12077;BME280;12420;42.676;23.262;2023-03-21T04:55:03;94280.44;;;8.32;87.59
12077;BME280;12420;42.676;23.262;2023-03-21T04:57:34;94379.69;;;9.19;87.84
12077;BME280;12420;42.676;23.262;2023-03-21T05:00:05;94376.84;;;9.05;87.54
12077;BME280;12420;42.676;23.262;2023-03-21T05:02:35;94305.56;;;8.28;87.83
12077;BME280;12420;42.676;23.262;2023-03-21T05:05:04;94315.03;;;8.76;87.59
12077;BME280;12420;42.676;23.262;2023-03-21T05:07:31;94377.56;;;9.25;87.42
12077;BME280;12420;42.676;23.262;2023-03-21T05:09:58;94380.72;;;9.16;87.75
12077;BME280;12420;42.676;23.262;2023-03-21T05:12:25;94298.84;;;8.67;87.16
12077;BME280;12420;42.676;23.262;2023-03-21T05:14:51;94383.88;;;9.39;87.70
12077;BME280;12420;42.676;23.262;2023-03-21T05:17:19;94320.53;;;8.76;87.67
12077;BME280;12420;42.676;23.262;2023-03-21T05:19:47;94303.38;;;8.64;87.34
12077;BME280;12420;42.676;23.262;2023-03-21T05:22:16;94391.19;;;9.55;87.57
12077;BME280;12420;42.676;23.262;2023-03-21T05:24:43;94385.56;;;9.61;87.43
12077;BME280;12420;42.676;23.262;2023-03-21T05:27:14;94370.88;;;9.52;87.85
12077;BME280;12420;42.676;23.262;2023-03-21T05:30:05;94276.16;;;8.93;87.06
12077;BME280;12420;42.676;23.262;2023-03-21T05:32:32;94370.44;;;9.48;86.15
12077;BME280;12420;42.676;23.262;2023-03-21T05:34:59;94388.19;;;9.72;86.53
12077;BME280;12420;42.676;23.262;2023-03-21T05:37:28;94370.69;;;9.64;86.92
12077;BME280;12420;42.676;23.262;2023-03-21T05:39:55;94395.53;;;9.83;86.75
12077;BME280;12420;42.676;23.262;2023-03-21T05:42:22;94381.00;;;9.63;87.23
12077;BME280;12420;42.676;23.262;2023-03-21T05:44:48;94374.78;;;9.89;86.53
12077;BME280;12420;42.676;23.262;2023-03-21T05:47:18;94358.88;;;10.09;87.66
12077;BME280;12420;42.676;23.262;2023-03-21T05:49:45;94354.75;;;10.15;85.33
12077;BME280;12420;42.676;23.262;2023-03-21T05:52:12;94372.75;;;10.35;85.72
12077;BME280;12420;42.676;23.262;2023-03-21T05:54:41;94301.66;;;9.77;85.13
12077;BME280;12420;42.676;23.262;2023-03-21T05:57:08;94345.19;;;10.30;84.12
12077;BME280;12420;42.676;23.262;2023-03-21T05:59:36;94374.97;;;10.77;84.28
12077;BME280;12420;42.676;23.262;2023-03-21T06:02:03;94370.28;;;10.85;83.57
12077;BME280;12420;42.676;23.262;2023-03-21T06:04:30;94377.69;;;11.03;82.34
12077;BME280;12420;42.676;23.262;2023-03-21T06:06:57;94271.56;;;10.40;81.45
12077;BME280;12420;42.676;23.262;2023-03-21T06:09:24;94361.78;;;11.17;81.36
12077;BME280;12420;42.676;23.262;2023-03-21T06:11:54;94367.88;;;11.37;81.29
12077;BME280;12420;42.676;23.262;2023-03-21T06:14:22;94382.81;;;11.34;78.72
12077;BME280;12420;42.676;23.262;2023-03-21T06:16:49;94353.94;;;11.29;78.58
12077;BME280;12420;42.676;23.262;2023-03-21T06:19:18;94352.97;;;11.40;78.15
12077;BME280;12420;42.676;23.262;2023-03-21T06:21:46;94316.53;;;11.36;79.06
12077;BME280;12420;42.676;23.262;2023-03-21T06:24:14;94334.91;;;11.67;78.79
12077;BME280;12420;42.676;23.262;2023-03-21T06:26:42;94362.59;;;12.02;78.73
12077;BME280;12420;42.676;23.262;2023-03-21T06:29:10;94369.81;;;12.05;77.29
12077;BME280;12420;42.676;23.262;2023-03-21T06:31:37;94353.44;;;12.14;77.65
12077;BME280;12420;42.676;23.262;2023-03-21T06:34:04;94376.00;;;12.19;77.41
12077;BME280;12420;42.676;23.262;2023-03-21T06:36:31;94368.72;;;12.29;77.06
12077;BME280;12420;42.676;23.262;2023-03-21T06:38:58;94376.72;;;12.40;76.87
12077;BME280;12420;42.676;23.262;2023-03-21T06:41:25;94304.88;;;12.00;76.29
12077;BME280;12420;42.676;23.262;2023-03-21T06:43:52;94311.31;;;11.95;74.96
12077;BME280;12420;42.676;23.262;2023-03-21T06:46:22;94292.31;;;11.99;73.15
12077;BME280;12420;42.676;23.262;2023-03-21T06:48:49;94375.94;;;12.60;72.47
12077;BME280;12420;42.676;23.262;2023-03-21T06:51:16;94337.09;;;12.32;71.42
12077;BME280;12420;42.676;23.262;2023-03-21T06:53:43;94333.56;;;12.31;70.29
12077;BME280;12420;42.676;23.262;2023-03-21T06:56:11;94380.81;;;12.75;68.92
12077;BME280;12420;42.676;23.262;2023-03-21T06:58:38;94354.97;;;12.52;68.11
12077;BME280;12420;42.676;23.262;2023-03-21T07:01:06;94395.44;;;12.76;67.90
12077;BME280;12420;42.676;23.262;2023-03-21T07:03:35;94386.09;;;12.94;67.59
12077;BME280;12420;42.676;23.262;2023-03-21T07:06:06;94382.03;;;12.95;67.83
12077;BME280;12420;42.676;23.262;2023-03-21T07:08:36;94392.41;;;13.02;68.24
12077;BME280;12420;42.676;23.262;2023-03-21T07:11:03;94383.97;;;13.16;66.71
12077;BME280;12420;42.676;23.262;2023-03-21T07:13:31;94362.41;;;13.01;66.13
12077;BME280;12420;42.676;23.262;2023-03-21T07:15:58;94384.59;;;13.30;65.01
12077;BME280;12420;42.676;23.262;2023-03-21T07:18:25;94361.72;;;13.16;65.20
12077;BME280;12420;42.676;23.262;2023-03-21T07:21:11;94394.28;;;13.44;63.19
12077;BME280;12420;42.676;23.262;2023-03-21T07:23:38;94329.75;;;12.86;63.28
12077;BME280;12420;42.676;23.262;2023-03-21T07:26:06;94365.72;;;13.36;62.72
12077;BME280;12420;42.676;23.262;2023-03-21T07:28:33;94363.31;;;13.48;62.29
12077;BME280;12420;42.676;23.262;2023-03-21T07:31:04;94288.72;;;13.08;62.08
12077;BME280;12420;42.676;23.262;2023-03-21T07:33:32;94301.06;;;12.84;61.26
12077;BME280;12420;42.676;23.262;2023-03-21T07:35:59;94310.19;;;12.99;61.32
12077;BME280;12420;42.676;23.262;2023-03-21T07:38:30;94324.31;;;13.17;60.52
12077;BME280;12420;42.676;23.262;2023-03-21T07:40:58;94285.91;;;13.00;60.10
12077;BME280;12420;42.676;23.262;2023-03-21T07:43:26;94262.00;;;12.97;58.34
12077;BME280;12420;42.676;23.262;2023-03-21T07:45:56;94334.63;;;13.76;57.90
12077;BME280;12420;42.676;23.262;2023-03-21T07:48:24;94335.19;;;13.89;57.70
12077;BME280;12420;42.676;23.262;2023-03-21T07:50:51;94342.97;;;13.83;58.07
12077;BME280;12420;42.676;23.262;2023-03-21T07:53:20;94319.97;;;13.90;57.78
12077;BME280;12420;42.676;23.262;2023-03-21T07:55:53;94348.91;;;13.87;55.75
12077;BME280;12420;42.676;23.262;2023-03-21T07:58:21;94297.34;;;13.48;55.17
12077;BME280;12420;42.676;23.262;2023-03-21T08:00:48;94311.06;;;14.00;54.60
12077;BME280;12420;42.676;23.262;2023-03-21T08:03:16;94387.88;;;14.18;55.03
12077;BME280;12420;42.676;23.262;2023-03-21T08:05:43;94284.00;;;13.93;55.04
12077;BME280;12420;42.676;23.262;2023-03-21T08:08:12;94372.59;;;14.50;54.84
12077;BME280;12420;42.676;23.262;2023-03-21T08:10:41;94245.41;;;13.89;54.45
12077;BME280;12420;42.676;23.262;2023-03-21T08:13:09;94456.88;;;15.04;53.97
12077;BME280;12420;42.676;23.262;2023-03-21T08:15:39;94309.16;;;14.56;54.25
12077;BME280;12420;42.676;23.262;2023-03-21T08:18:06;94397.06;;;14.90;52.44
12077;BME280;12420;42.676;23.262;2023-03-21T08:20:36;94216.47;;;14.00;52.91
12077;BME280;12420;42.676;23.262;2023-03-21T08:23:18;94353.78;;;14.96;54.00
12077;BME280;12420;42.676;23.262;2023-03-21T08:25:45;94442.84;;;15.35;53.71
12077;BME280;12420;42.676;23.262;2023-03-21T08:28:15;94319.78;;;14.90;53.12
12077;BME280;12420;42.676;23.262;2023-03-21T08:30:43;94255.34;;;14.30;53.54
12077;BME280;12420;42.676;23.262;2023-03-21T08:33:10;94260.56;;;14.19;53.37
12077;BME280;12420;42.676;23.262;2023-03-21T08:35:37;94422.13;;;15.46;53.94
12077;BME280;12420;42.676;23.262;2023-03-21T08:38:05;94322.16;;;15.02;53.12
12077;BME280;12420;42.676;23.262;2023-03-21T08:40:32;94314.75;;;14.96;53.30
12077;BME280;12420;42.676;23.262;2023-03-21T08:43:01;94276.03;;;14.68;52.92
12077;BME280;12420;42.676;23.262;2023-03-21T08:45:29;94284.41;;;14.68;54.12
12077;BME280;12420;42.676;23.262;2023-03-21T08:47:56;94446.84;;;15.49;53.05
12077;BME280;12420;42.676;23.262;2023-03-21T08:50:25;94259.72;;;14.64;52.82
12077;BME280;12420;42.676;23.262;2023-03-21T08:52:54;94385.84;;;15.53;55.08
12077;BME280;12420;42.676;23.262;2023-03-21T08:55:21;94311.56;;;15.00;52.27
12077;BME280;12420;42.676;23.262;2023-03-21T08:57:47;94384.41;;;15.04;52.81
12077;BME280;12420;42.676;23.262;2023-03-21T09:00:16;94360.47;;;15.34;53.97
12077;BME280;12420;42.676;23.262;2023-03-21T09:02:48;94318.72;;;15.18;54.58
12077;BME280;12420;42.676;23.262;2023-03-21T09:05:20;94314.47;;;15.17;54.72
12077;BME280;12420;42.676;23.262;2023-03-21T09:07:48;94353.16;;;15.46;54.66
12077;BME280;12420;42.676;23.262;2023-03-21T09:10:16;94376.34;;;15.56;55.10
12077;BME280;12420;42.676;23.262;2023-03-21T09:12:44;94428.78;;;15.58;53.74
12077;BME280;12420;42.676;23.262;2023-03-21T09:15:12;94330.31;;;15.07;53.86
12077;BME280;12420;42.676;23.262;2023-03-21T09:17:39;94297.78;;;15.10;53.22
12077;BME280;12420;42.676;23.262;2023-03-21T09:20:11;94351.22;;;15.56;53.75
12077;BME280;12420;42.676;23.262;2023-03-21T09:22:44;94302.31;;;15.30;53.92
12077;BME280;12420;42.676;23.262;2023-03-21T09:25:12;94365.41;;;15.83;52.96
12077;BME280;12420;42.676;23.262;2023-03-21T09:27:40;94402.56;;;15.94;52.92
12077;BME280;12420;42.676;23.262;2023-03-21T09:30:08;94345.59;;;15.97;53.63
12077;BME280;12420;42.676;23.262;2023-03-21T09:32:37;94380.06;;;15.92;53.38
12077;BME280;12420;42.676;23.262;2023-03-21T09:35:04;94314.88;;;15.39;53.25
12077;BME280;12420;42.676;23.262;2023-03-21T09:37:34;94362.56;;;15.58;54.07
12077;BME280;12420;42.676;23.262;2023-03-21T09:40:13;94302.84;;;15.61;53.96
12077;BME280;12420;42.676;23.262;2023-03-21T09:42:51;94291.88;;;15.63;53.89
12077;BME280;12420;42.676;23.262;2023-03-21T09:45:28;94280.34;;;15.59;53.01
12077;BME280;12420;42.676;23.262;2023-03-21T09:47:58;94258.22;;;15.36;53.80
12077;BME280;12420;42.676;23.262;2023-03-21T09:50:29;94302.25;;;15.05;54.29
12077;BME280;12420;42.676;23.262;2023-03-21T09:53:00;94322.84;;;15.17;54.28
12077;BME280;12420;42.676;23.262;2023-03-21T09:55:32;94300.56;;;15.43;53.65
12077;BME280;12420;42.676;23.262;2023-03-21T09:58:06;94166.50;;;14.65;53.49
12077;BME280;12420;42.676;23.262;2023-03-21T10:00:36;94226.53;;;14.91;53.84
12077;BME280;12420;42.676;23.262;2023-03-21T10:03:07;94181.78;;;14.89;53.89
12077;BME280;12420;42.676;23.262;2023-03-21T10:05:41;94322.06;;;16.08;53.67
12077;BME280;12420;42.676;23.262;2023-03-21T10:08:15;94165.69;;;15.05;52.95
12077;BME280;12420;42.676;23.262;2023-03-21T10:10:48;94187.38;;;15.14;51.95
12077;BME280;12420;42.676;23.262;2023-03-21T10:13:19;94280.28;;;16.17;51.21
12077;BME280;12420;42.676;23.262;2023-03-21T10:15:47;94159.50;;;15.57;50.57
12077;BME280;12420;42.676;23.262;2023-03-21T10:18:20;94339.72;;;16.70;49.70
12077;BME280;12420;42.676;23.262;2023-03-21T10:20:50;94151.47;;;15.61;50.56
12077;BME280;12420;42.676;23.262;2023-03-21T10:23:21;94176.25;;;15.99;50.23
12077;BME280;12420;42.676;23.262;2023-03-21T10:25:54;94177.06;;;16.10;48.16
12077;BME280;12420;42.676;23.262;2023-03-21T10:28:25;94262.28;;;16.98;48.18
12077;BME280;12420;42.676;23.262;2023-03-21T10:30:54;94302.22;;;17.35;48.35
12077;BME280;12420;42.676;23.262;2023-03-21T10:33:24;94254.88;;;17.20;47.19
12077;BME280;12420;42.676;23.262;2023-03-21T10:35:54;94183.38;;;16.27;46.91
12077;BME280;12420;42.676;23.262;2023-03-21T10:38:25;94255.91;;;17.14;47.09
12077;BME280;12420;42.676;23.262;2023-03-21T10:40:54;94264.50;;;17.26;46.68
12077;BME280;12420;42.676;23.262;2023-03-21T10:43:33;94195.97;;;16.63;45.04
12077;BME280;12420;42.676;23.262;2023-03-21T10:46:07;94303.66;;;17.81;45.99
12077;BME280;12420;42.676;23.262;2023-03-21T10:48:37;94287.00;;;17.83;44.53
12077;BME280;12420;42.676;23.262;2023-03-21T10:51:06;94225.41;;;17.36;44.12
12077;BME280;12420;42.676;23.262;2023-03-21T10:53:38;94302.00;;;18.14;44.06
12077;BME280;12420;42.676;23.262;2023-03-21T10:56:08;94299.66;;;18.20;41.19
12077;BME280;12420;42.676;23.262;2023-03-21T10:58:42;94291.50;;;18.05;41.55
12077;BME280;12420;42.676;23.262;2023-03-21T11:01:13;94289.72;;;18.00;42.72
12077;BME280;12420;42.676;23.262;2023-03-21T11:03:44;94287.22;;;18.04;43.31
12077;BME280;12420;42.676;23.262;2023-03-21T11:06:15;94281.78;;;18.16;43.53
12077;BME280;12420;42.676;23.262;2023-03-21T11:08:47;94259.97;;;18.05;43.72
12077;BME280;12420;42.676;23.262;2023-03-21T11:11:19;94247.25;;;17.84;43.43
12077;BME280;12420;42.676;23.262;2023-03-21T11:13:55;94262.03;;;18.04;43.32
12077;BME280;12420;42.676;23.262;2023-03-21T11:16:25;94266.91;;;18.13;42.42
12077;BME280;12420;42.676;23.262;2023-03-21T11:19:00;94206.78;;;17.58;43.27
12077;BME280;12420;42.676;23.262;2023-03-21T11:21:35;94265.09;;;17.89;42.43
12077;BME280;12420;42.676;23.262;2023-03-21T11:24:05;94272.03;;;17.97;42.21
12077;BME280;12420;42.676;23.262;2023-03-21T11:26:36;94250.97;;;18.06;42.42
12077;BME280;12420;42.676;23.262;2023-03-21T11:32:09;94251.84;;;17.99;41.17
12077;BME280;12420;42.676;23.262;2023-03-21T11:34:41;94287.38;;;18.06;40.62
12077;BME280;12420;42.676;23.262;2023-03-21T11:37:18;94137.31;;;17.27;41.85
12077;BME280;12420;42.676;23.262;2023-03-21T11:39:54;94245.06;;;18.02;40.71
12077;BME280;12420;42.676;23.262;2023-03-21T11:42:26;94183.00;;;17.40;41.34
12077;BME280;12420;42.676;23.262;2023-03-21T11:44:59;94239.00;;;17.86;41.17
12077;BME280;12420;42.676;23.262;2023-03-21T11:47:27;94238.94;;;17.76;41.26
12077;BME280;12420;42.676;23.262;2023-03-21T11:49:55;94221.38;;;17.66;41.34
12077;BME280;12420;42.676;23.262;2023-03-21T11:52:30;94206.19;;;17.60;41.51
12077;BME280;12420;42.676;23.262;2023-03-21T11:55:22;94218.00;;;17.77;42.16
12077;BME280;12420;42.676;23.262;2023-03-21T11:57:57;94189.06;;;17.46;41.75
12077;BME280;12420;42.676;23.262;2023-03-21T12:00:31;94230.22;;;17.72;41.82
12077;BME280;12420;42.676;23.262;2023-03-21T12:03:29;94222.31;;;17.78;42.15
12077;BME280;12420;42.676;23.262;2023-03-21T12:06:10;94217.03;;;17.83;41.03
12077;BME280;12420;42.676;23.262;2023-03-21T12:08:46;94202.69;;;17.69;40.62
12077;BME280;12420;42.676;23.262;2023-03-21T12:11:25;94187.31;;;17.60;40.72
12077;BME280;12420;42.676;23.262;2023-03-21T12:14:04;94208.34;;;17.88;41.21
12077;BME280;12420;42.676;23.262;2023-03-21T12:16:45;94189.34;;;17.87;41.32
12077;BME280;12420;42.676;23.262;2023-03-21T12:19:48;94188.63;;;17.86;40.78
12077;BME280;12420;42.676;23.262;2023-03-21T12:22:27;94199.69;;;17.94;42.29
12077;BME280;12420;42.676;23.262;2023-03-21T12:24:58;94181.81;;;17.79;42.27
12077;BME280;12420;42.676;23.262;2023-03-21T12:27:39;94202.97;;;17.73;40.98
12077;BME280;12420;42.676;23.262;2023-03-21T12:30:20;94172.63;;;17.69;40.91
12077;BME280;12420;42.676;23.262;2023-03-21T12:32:58;94186.72;;;18.08;41.15
12077;BME280;12420;42.676;23.262;2023-03-21T12:35:37;94181.84;;;18.09;39.48
12077;BME280;12420;42.676;23.262;2023-03-21T12:38:14;94166.22;;;18.06;38.92
12077;BME280;12420;42.676;23.262;2023-03-21T12:41:04;94127.09;;;17.59;41.04
12077;BME280;12420;42.676;23.262;2023-03-21T12:43:45;94174.34;;;18.21;42.17
12077;BME280;12420;42.676;23.262;2023-03-21T12:46:18;94150.84;;;17.77;40.35
12077;BME280;12420;42.676;23.262;2023-03-21T12:48:49;94180.81;;;17.94;40.40
12077;BME280;12420;42.676;23.262;2023-03-21T12:51:19;94162.53;;;18.03;39.02
12077;BME280;12420;42.676;23.262;2023-03-21T12:53:51;94179.06;;;18.18;39.33
12077;BME280;12420;42.676;23.262;2023-03-21T12:56:22;94103.25;;;17.77;39.14
12077;BME280;12420;42.676;23.262;2023-03-21T12:58:56;94118.31;;;17.92;39.44
12077;BME280;12420;42.676;23.262;2023-03-21T13:01:25;94150.91;;;18.07;39.45
12077;BME280;12420;42.676;23.262;2023-03-21T13:04:05;94154.44;;;17.97;39.60
12077;BME280;12420;42.676;23.262;2023-03-21T13:06:34;94162.84;;;18.07;40.08
12077;BME280;12420;42.676;23.262;2023-03-21T13:09:19;94148.53;;;18.13;40.01
12077;BME280;12420;42.676;23.262;2023-03-21T13:11:49;94149.28;;;18.23;39.35
12077;BME280;12420;42.676;23.262;2023-03-21T13:14:24;94147.50;;;18.18;40.46
12077;BME280;12420;42.676;23.262;2023-03-21T13:16:55;94094.13;;;17.67;40.02
12077;BME280;12420;42.676;23.262;2023-03-21T13:19:36;94068.91;;;17.57;40.06